Map Display - EGGD to EGAC
(last flight recorded 26-11-2020, 20:34 - Andrew Siddall)

Aircraft Weights    Units : Maximums
Passengers :   36  
Cargo : kg 3,765 kg
Suggested Fuel Load : kg 1,742 kg
 
     
 
Dry Operating : 7,350 kg    
Total Payload : 0 kg 2,563 kg
 
Take Off : 8,452 kg 11,999 kg
 
Expected Landing : 7,840 kg 12,020 kg

Geoff Price,  SH36 ,  G-OBLK,  .

Route Distance Previous
Flights
Average
Duration
Average
Fuel Flow
Average
Fuel Use
EGGD - Bristol
EGAC - Belfast City
225 nm 1 01:30 408 kg/h 612 kg

Current weather :-
2020/11/27 12:09
TAF EGGD 271105Z 2712/2812 07007KT 9999 FEW040
TEMPO 2712/2715 6000 PROB40
TEMPO 2712/2713 4000 BR BKN004
BECMG 2715/2718 6000
TEMPO 2718/2723 2000 RADZ BR BKN003
BECMG 2723/2802 2000 BR OVC002
TEMPO 2723/2812 0300 FG OVC001 PROB40
TEMPO 2800/2806 DZ
 

Back to Virtual Airline